sensor_id;sensor_type;location;lat;lon;timestamp;P1;durP1;ratioP1;P2;durP2;ratioP2
15616;SDS011;7908;51.688;7.130;2023-06-10T00:00:21;11.23;;;7.50;;
15616;SDS011;7908;51.688;7.130;2023-06-10T00:02:52;8.25;;;6.60;;
15616;SDS011;7908;51.688;7.130;2023-06-10T00:05:22;12.57;;;6.90;;
15616;SDS011;7908;51.688;7.130;2023-06-10T00:07:51;8.52;;;7.13;;
15616;SDS011;7908;51.688;7.130;2023-06-10T00:10:22;9.40;;;7.07;;
15616;SDS011;7908;51.688;7.130;2023-06-10T00:12:52;7.80;;;6.90;;
15616;SDS011;7908;51.688;7.130;2023-06-10T00:15:22;8.00;;;7.00;;
15616;SDS011;7908;51.688;7.130;2023-06-10T00:17:52;10.75;;;6.60;;
15616;SDS011;7908;51.688;7.130;2023-06-10T00:20:22;7.85;;;7.15;;
15616;SDS011;7908;51.688;7.130;2023-06-10T00:22:53;7.72;;;7.00;;
15616;SDS011;7908;51.688;7.130;2023-06-10T00:25:23;7.75;;;6.60;;
15616;SDS011;7908;51.688;7.130;2023-06-10T00:27:53;8.17;;;7.37;;
15616;SDS011;7908;51.688;7.130;2023-06-10T00:30:22;8.80;;;6.93;;
15616;SDS011;7908;51.688;7.130;2023-06-10T00:32:53;10.35;;;7.18;;
15616;SDS011;7908;51.688;7.130;2023-06-10T00:35:23;9.43;;;6.77;;
15616;SDS011;7908;51.688;7.130;2023-06-10T00:37:51;9.48;;;7.50;;
15616;SDS011;7908;51.688;7.130;2023-06-10T00:40:20;8.90;;;7.00;;
15616;SDS011;7908;51.688;7.130;2023-06-10T00:42:49;7.50;;;6.47;;
15616;SDS011;7908;51.688;7.130;2023-06-10T00:45:20;7.67;;;6.90;;
15616;SDS011;7908;51.688;7.130;2023-06-10T00:47:49;7.93;;;6.67;;
15616;SDS011;7908;51.688;7.130;2023-06-10T00:50:19;7.70;;;6.70;;
15616;SDS011;7908;51.688;7.130;2023-06-10T00:52:48;9.83;;;7.17;;
15616;SDS011;7908;51.688;7.130;2023-06-10T00:55:21;8.50;;;6.57;;
15616;SDS011;7908;51.688;7.130;2023-06-10T00:57:51;8.20;;;7.00;;
15616;SDS011;7908;51.688;7.130;2023-06-10T01:00:21;8.13;;;7.00;;
15616;SDS011;7908;51.688;7.130;2023-06-10T01:02:50;7.20;;;6.50;;
15616;SDS011;7908;51.688;7.130;2023-06-10T01:05:21;7.77;;;6.90;;
15616;SDS011;7908;51.688;7.130;2023-06-10T01:07:52;8.13;;;7.20;;
15616;SDS011;7908;51.688;7.130;2023-06-10T01:10:28;7.73;;;6.93;;
15616;SDS011;7908;51.688;7.130;2023-06-10T01:13:02;7.30;;;6.60;;
15616;SDS011;7908;51.688;7.130;2023-06-10T01:15:34;8.27;;;6.90;;
15616;SDS011;7908;51.688;7.130;2023-06-10T01:18:03;8.03;;;7.27;;
15616;SDS011;7908;51.688;7.130;2023-06-10T01:20:37;7.97;;;7.27;;
15616;SDS011;7908;51.688;7.130;2023-06-10T01:23:08;7.90;;;7.10;;
15616;SDS011;7908;51.688;7.130;2023-06-10T01:25:38;9.20;;;7.40;;
15616;SDS011;7908;51.688;7.130;2023-06-10T01:28:12;7.87;;;7.10;;
15616;SDS011;7908;51.688;7.130;2023-06-10T01:30:47;8.20;;;7.40;;
15616;SDS011;7908;51.688;7.130;2023-06-10T01:33:21;8.10;;;7.30;;
15616;SDS011;7908;51.688;7.130;2023-06-10T01:35:55;7.73;;;6.93;;
15616;SDS011;7908;51.688;7.130;2023-06-10T01:38:27;9.47;;;7.83;;
15616;SDS011;7908;51.688;7.130;2023-06-10T01:41:01;9.33;;;7.93;;
15616;SDS011;7908;51.688;7.130;2023-06-10T01:43:32;9.33;;;7.70;;
15616;SDS011;7908;51.688;7.130;2023-06-10T01:46:02;8.10;;;7.40;;
15616;SDS011;7908;51.688;7.130;2023-06-10T01:48:31;8.67;;;7.67;;
15616;SDS011;7908;51.688;7.130;2023-06-10T01:51:00;8.40;;;7.53;;
15616;SDS011;7908;51.688;7.130;2023-06-10T01:53:30;8.23;;;7.53;;
15616;SDS011;7908;51.688;7.130;2023-06-10T01:55:59;8.57;;;7.40;;
15616;SDS011;7908;51.688;7.130;2023-06-10T01:58:27;8.80;;;7.90;;
15616;SDS011;7908;51.688;7.130;2023-06-10T02:00:56;8.67;;;7.73;;
15616;SDS011;7908;51.688;7.130;2023-06-10T02:03:25;8.07;;;7.37;;
15616;SDS011;7908;51.688;7.130;2023-06-10T02:05:54;8.40;;;7.60;;
15616;SDS011;7908;51.688;7.130;2023-06-10T02:08:23;8.67;;;7.87;;
15616;SDS011;7908;51.688;7.130;2023-06-10T02:10:55;9.50;;;7.90;;
15616;SDS011;7908;51.688;7.130;2023-06-10T02:13:24;9.77;;;8.43;;
15616;SDS011;7908;51.688;7.130;2023-06-10T02:15:53;8.80;;;7.90;;
15616;SDS011;7908;51.688;7.130;2023-06-10T02:18:21;8.57;;;7.67;;
15616;SDS011;7908;51.688;7.130;2023-06-10T02:20:50;8.63;;;7.83;;
15616;SDS011;7908;51.688;7.130;2023-06-10T02:23:19;7.80;;;7.10;;
15616;SDS011;7908;51.688;7.130;2023-06-10T02:25:48;8.30;;;7.50;;
15616;SDS011;7908;51.688;7.130;2023-06-10T02:28:18;8.43;;;7.53;;
15616;SDS011;7908;51.688;7.130;2023-06-10T02:30:47;8.40;;;7.47;;
15616;SDS011;7908;51.688;7.130;2023-06-10T02:33:16;8.53;;;7.73;;
15616;SDS011;7908;51.688;7.130;2023-06-10T02:35:45;11.20;;;8.47;;
15616;SDS011;7908;51.688;7.130;2023-06-10T02:38:13;9.03;;;7.43;;
15616;SDS011;7908;51.688;7.130;2023-06-10T02:40:43;9.30;;;8.30;;
15616;SDS011;7908;51.688;7.130;2023-06-10T02:43:12;9.33;;;8.00;;
15616;SDS011;7908;51.688;7.130;2023-06-10T02:45:42;8.97;;;7.67;;
15616;SDS011;7908;51.688;7.130;2023-06-10T02:48:10;11.37;;;8.03;;
15616;SDS011;7908;51.688;7.130;2023-06-10T02:50:40;8.60;;;7.80;;
15616;SDS011;7908;51.688;7.130;2023-06-10T02:53:08;9.00;;;8.10;;
15616;SDS011;7908;51.688;7.130;2023-06-10T02:55:37;9.17;;;8.27;;
15616;SDS011;7908;51.688;7.130;2023-06-10T02:58:07;8.97;;;8.10;;
15616;SDS011;7908;51.688;7.130;2023-06-10T03:00:36;10.57;;;7.93;;
15616;SDS011;7908;51.688;7.130;2023-06-10T03:03:09;8.87;;;7.77;;
15616;SDS011;7908;51.688;7.130;2023-06-10T03:05:38;9.03;;;8.13;;
15616;SDS011;7908;51.688;7.130;2023-06-10T03:08:07;8.73;;;7.60;;
15616;SDS011;7908;51.688;7.130;2023-06-10T03:10:36;8.20;;;7.50;;
15616;SDS011;7908;51.688;7.130;2023-06-10T03:13:05;14.30;;;8.20;;
15616;SDS011;7908;51.688;7.130;2023-06-10T03:15:34;9.23;;;7.43;;
15616;SDS011;7908;51.688;7.130;2023-06-10T03:18:02;8.20;;;7.40;;
15616;SDS011;7908;51.688;7.130;2023-06-10T03:20:33;8.83;;;7.03;;
15616;SDS011;7908;51.688;7.130;2023-06-10T03:23:04;9.23;;;7.47;;
15616;SDS011;7908;51.688;7.130;2023-06-10T03:25:33;7.67;;;6.87;;
15616;SDS011;7908;51.688;7.130;2023-06-10T03:28:02;9.00;;;7.10;;
15616;SDS011;7908;51.688;7.130;2023-06-10T03:30:31;10.83;;;7.20;;
15616;SDS011;7908;51.688;7.130;2023-06-10T03:33:00;8.60;;;6.40;;
15616;SDS011;7908;51.688;7.130;2023-06-10T03:35:29;8.07;;;7.13;;
15616;SDS011;7908;51.688;7.130;2023-06-10T03:37:59;8.07;;;6.87;;
15616;SDS011;7908;51.688;7.130;2023-06-10T03:40:28;8.40;;;7.50;;
15616;SDS011;7908;51.688;7.130;2023-06-10T03:42:58;10.20;;;7.20;;
15616;SDS011;7908;51.688;7.130;2023-06-10T03:45:27;7.73;;;6.57;;
15616;SDS011;7908;51.688;7.130;2023-06-10T03:47:56;9.20;;;6.57;;
15616;SDS011;7908;51.688;7.130;2023-06-10T03:50:25;5.90;;;4.63;;
15616;SDS011;7908;51.688;7.130;2023-06-10T03:52:53;9.40;;;6.70;;
15616;SDS011;7908;51.688;7.130;2023-06-10T03:55:24;9.77;;;6.53;;
15616;SDS011;7908;51.688;7.130;2023-06-10T03:57:53;7.13;;;6.43;;
15616;SDS011;7908;51.688;7.130;2023-06-10T04:00:21;7.40;;;6.40;;
15616;SDS011;7908;51.688;7.130;2023-06-10T04:02:51;7.77;;;6.50;;
15616;SDS011;7908;51.688;7.130;2023-06-10T04:05:20;7.73;;;6.37;;
15616;SDS011;7908;51.688;7.130;2023-06-10T04:07:49;9.33;;;6.00;;
15616;SDS011;7908;51.688;7.130;2023-06-10T04:10:18;9.60;;;5.87;;
15616;SDS011;7908;51.688;7.130;2023-06-10T04:12:48;9.70;;;6.20;;
15616;SDS011;7908;51.688;7.130;2023-06-10T04:15:17;7.87;;;6.30;;
15616;SDS011;7908;51.688;7.130;2023-06-10T04:17:45;9.37;;;6.03;;
15616;SDS011;7908;51.688;7.130;2023-06-10T04:20:15;7.40;;;5.80;;
15616;SDS011;7908;51.688;7.130;2023-06-10T04:22:44;8.37;;;5.93;;
15616;SDS011;7908;51.688;7.130;2023-06-10T04:25:13;8.13;;;6.13;;
15616;SDS011;7908;51.688;7.130;2023-06-10T04:27:43;7.60;;;5.33;;
15616;SDS011;7908;51.688;7.130;2023-06-10T04:30:14;6.97;;;5.63;;
15616;SDS011;7908;51.688;7.130;2023-06-10T04:32:43;8.50;;;5.53;;
15616;SDS011;7908;51.688;7.130;2023-06-10T04:35:11;7.77;;;6.13;;
15616;SDS011;7908;51.688;7.130;2023-06-10T04:37:40;6.93;;;5.50;;
15616;SDS011;7908;51.688;7.130;2023-06-10T04:40:09;8.07;;;5.30;;
15616;SDS011;7908;51.688;7.130;2023-06-10T04:42:38;9.53;;;5.23;;
15616;SDS011;7908;51.688;7.130;2023-06-10T04:45:07;7.67;;;5.77;;
15616;SDS011;7908;51.688;7.130;2023-06-10T04:47:38;8.00;;;5.77;;
15616;SDS011;7908;51.688;7.130;2023-06-10T04:50:07;8.77;;;5.30;;
15616;SDS011;7908;51.688;7.130;2023-06-10T04:52:37;5.88;;;4.88;;
15616;SDS011;7908;51.688;7.130;2023-06-10T04:55:08;7.28;;;4.75;;
15616;SDS011;7908;51.688;7.130;2023-06-10T04:57:37;5.82;;;4.85;;
15616;SDS011;7908;51.688;7.130;2023-06-10T05:00:06;6.40;;;4.57;;
15616;SDS011;7908;51.688;7.130;2023-06-10T05:02:36;6.40;;;4.75;;
15616;SDS011;7908;51.688;7.130;2023-06-10T05:05:07;6.40;;;4.80;;
15616;SDS011;7908;51.688;7.130;2023-06-10T05:07:36;6.22;;;4.60;;
15616;SDS011;7908;51.688;7.130;2023-06-10T05:10:05;6.45;;;4.53;;
15616;SDS011;7908;51.688;7.130;2023-06-10T05:12:34;8.60;;;4.60;;
15616;SDS011;7908;51.688;7.130;2023-06-10T05:15:05;6.80;;;4.60;;
15616;SDS011;7908;51.688;7.130;2023-06-10T05:17:35;5.43;;;4.15;;
15616;SDS011;7908;51.688;7.130;2023-06-10T05:20:04;11.40;;;4.63;;
15616;SDS011;7908;51.688;7.130;2023-06-10T05:22:35;6.10;;;4.50;;
15616;SDS011;7908;51.688;7.130;2023-06-10T05:25:04;5.30;;;4.45;;
15616;SDS011;7908;51.688;7.130;2023-06-10T05:27:35;5.72;;;4.45;;
15616;SDS011;7908;51.688;7.130;2023-06-10T05:30:05;6.13;;;4.45;;
15616;SDS011;7908;51.688;7.130;2023-06-10T05:32:35;7.40;;;4.50;;
15616;SDS011;7908;51.688;7.130;2023-06-10T05:35:04;6.47;;;4.47;;
15616;SDS011;7908;51.688;7.130;2023-06-10T05:37:35;6.47;;;4.10;;
15616;SDS011;7908;51.688;7.130;2023-06-10T05:40:04;8.60;;;4.85;;
15616;SDS011;7908;51.688;7.130;2023-06-10T05:42:34;6.07;;;4.25;;
15616;SDS011;7908;51.688;7.130;2023-06-10T05:45:03;8.57;;;4.13;;
15616;SDS011;7908;51.688;7.130;2023-06-10T05:47:34;6.05;;;4.25;;
15616;SDS011;7908;51.688;7.130;2023-06-10T05:50:03;7.32;;;4.40;;
15616;SDS011;7908;51.688;7.130;2023-06-10T05:52:35;6.97;;;3.97;;
15616;SDS011;7908;51.688;7.130;2023-06-10T05:55:07;5.32;;;4.50;;
15616;SDS011;7908;51.688;7.130;2023-06-10T05:57:37;5.43;;;4.00;;
15616;SDS011;7908;51.688;7.130;2023-06-10T06:00:06;8.38;;;4.47;;
15616;SDS011;7908;51.688;7.130;2023-06-10T06:02:36;5.57;;;4.20;;
15616;SDS011;7908;51.688;7.130;2023-06-10T06:05:05;5.78;;;4.00;;
15616;SDS011;7908;51.688;7.130;2023-06-10T06:07:36;5.25;;;4.30;;
15616;SDS011;7908;51.688;7.130;2023-06-10T06:10:05;5.53;;;3.80;;
15616;SDS011;7908;51.688;7.130;2023-06-10T06:12:34;5.07;;;3.92;;
15616;SDS011;7908;51.688;7.130;2023-06-10T06:15:04;7.10;;;4.10;;
15616;SDS011;7908;51.688;7.130;2023-06-10T06:17:35;6.70;;;3.92;;
15616;SDS011;7908;51.688;7.130;2023-06-10T06:20:05;6.25;;;4.00;;
15616;SDS011;7908;51.688;7.130;2023-06-10T06:22:36;7.07;;;4.15;;
15616;SDS011;7908;51.688;7.130;2023-06-10T06:25:05;5.50;;;4.28;;
15616;SDS011;7908;51.688;7.130;2023-06-10T06:27:35;5.13;;;3.97;;
15616;SDS011;7908;51.688;7.130;2023-06-10T06:30:04;8.82;;;4.32;;
15616;SDS011;7908;51.688;7.130;2023-06-10T06:32:34;4.95;;;3.83;;
15616;SDS011;7908;51.688;7.130;2023-06-10T06:35:03;9.00;;;4.20;;
15616;SDS011;7908;51.688;7.130;2023-06-10T06:37:36;4.00;;;3.60;;
15616;SDS011;7908;51.688;7.130;2023-06-10T06:40:05;4.70;;;3.75;;
15616;SDS011;7908;51.688;7.130;2023-06-10T06:42:35;5.68;;;3.90;;
15616;SDS011;7908;51.688;7.130;2023-06-10T06:45:04;5.78;;;3.75;;
15616;SDS011;7908;51.688;7.130;2023-06-10T06:47:34;6.78;;;4.15;;
15616;SDS011;7908;51.688;7.130;2023-06-10T06:50:03;4.32;;;3.75;;
15616;SDS011;7908;51.688;7.130;2023-06-10T06:52:32;6.47;;;3.60;;
15616;SDS011;7908;51.688;7.130;2023-06-10T06:55:03;6.50;;;3.72;;
15616;SDS011;7908;51.688;7.130;2023-06-10T06:57:33;8.40;;;3.70;;
15616;SDS011;7908;51.688;7.130;2023-06-10T07:00:03;5.03;;;3.47;;
15616;SDS011;7908;51.688;7.130;2023-06-10T07:02:35;4.63;;;3.33;;
15616;SDS011;7908;51.688;7.130;2023-06-10T07:05:04;5.38;;;3.50;;
15616;SDS011;7908;51.688;7.130;2023-06-10T07:07:34;6.43;;;3.88;;
15616;SDS011;7908;51.688;7.130;2023-06-10T07:10:05;5.30;;;3.40;;
15616;SDS011;7908;51.688;7.130;2023-06-10T07:12:35;5.45;;;3.28;;
15616;SDS011;7908;51.688;7.130;2023-06-10T07:15:04;7.43;;;3.85;;
15616;SDS011;7908;51.688;7.130;2023-06-10T07:17:34;5.10;;;3.30;;
15616;SDS011;7908;51.688;7.130;2023-06-10T07:20:04;6.13;;;3.40;;
15616;SDS011;7908;51.688;7.130;2023-06-10T07:22:33;5.25;;;2.97;;
15616;SDS011;7908;51.688;7.130;2023-06-10T07:25:02;4.95;;;3.40;;
15616;SDS011;7908;51.688;7.130;2023-06-10T07:27:34;4.88;;;3.40;;
15616;SDS011;7908;51.688;7.130;2023-06-10T07:30:04;5.57;;;3.63;;
15616;SDS011;7908;51.688;7.130;2023-06-10T07:32:37;5.57;;;3.47;;
15616;SDS011;7908;51.688;7.130;2023-06-10T07:35:08;8.02;;;3.67;;
15616;SDS011;7908;51.688;7.130;2023-06-10T07:37:38;5.50;;;3.67;;
15616;SDS011;7908;51.688;7.130;2023-06-10T07:40:09;7.40;;;3.58;;
15616;SDS011;7908;51.688;7.130;2023-06-10T07:42:39;5.22;;;3.20;;
15616;SDS011;7908;51.688;7.130;2023-06-10T07:45:08;6.53;;;3.50;;
15616;SDS011;7908;51.688;7.130;2023-06-10T07:47:38;4.80;;;3.45;;
15616;SDS011;7908;51.688;7.130;2023-06-10T07:50:07;5.97;;;3.67;;
15616;SDS011;7908;51.688;7.130;2023-06-10T07:52:37;7.60;;;3.58;;
15616;SDS011;7908;51.688;7.130;2023-06-10T07:55:06;5.35;;;3.63;;
15616;SDS011;7908;51.688;7.130;2023-06-10T07:57:37;6.50;;;3.85;;
15616;SDS011;7908;51.688;7.130;2023-06-10T08:00:08;6.22;;;3.28;;
15616;SDS011;7908;51.688;7.130;2023-06-10T08:02:37;5.47;;;3.65;;
15616;SDS011;7908;51.688;7.130;2023-06-10T08:05:07;6.05;;;3.50;;
15616;SDS011;7908;51.688;7.130;2023-06-10T08:07:37;4.68;;;4.13;;
15616;SDS011;7908;51.688;7.130;2023-06-10T08:10:09;6.00;;;3.65;;
15616;SDS011;7908;51.688;7.130;2023-06-10T08:12:38;4.47;;;3.38;;
15616;SDS011;7908;51.688;7.130;2023-06-10T08:15:07;5.07;;;3.20;;
15616;SDS011;7908;51.688;7.130;2023-06-10T08:17:37;6.70;;;3.35;;
15616;SDS011;7908;51.688;7.130;2023-06-10T08:20:07;4.63;;;3.40;;
15616;SDS011;7908;51.688;7.130;2023-06-10T08:22:37;4.75;;;3.50;;
15616;SDS011;7908;51.688;7.130;2023-06-10T08:25:09;5.40;;;3.72;;
15616;SDS011;7908;51.688;7.130;2023-06-10T08:27:39;5.57;;;3.70;;
15616;SDS011;7908;51.688;7.130;2023-06-10T08:30:08;3.92;;;3.53;;
15616;SDS011;7908;51.688;7.130;2023-06-10T08:32:39;5.82;;;3.75;;
15616;SDS011;7908;51.688;7.130;2023-06-10T08:35:08;5.03;;;3.80;;
15616;SDS011;7908;51.688;7.130;2023-06-10T08:37:37;4.05;;;3.53;;
15616;SDS011;7908;51.688;7.130;2023-06-10T08:40:07;6.28;;;3.53;;
15616;SDS011;7908;51.688;7.130;2023-06-10T08:42:41;6.28;;;3.38;;
15616;SDS011;7908;51.688;7.130;2023-06-10T08:45:16;6.68;;;3.72;;
15616;SDS011;7908;51.688;7.130;2023-06-10T08:47:46;5.57;;;3.80;;
15616;SDS011;7908;51.688;7.130;2023-06-10T08:50:18;4.68;;;3.42;;
15616;SDS011;7908;51.688;7.130;2023-06-10T08:52:50;4.30;;;3.40;;
15616;SDS011;7908;51.688;7.130;2023-06-10T08:55:29;6.13;;;3.55;;
15616;SDS011;7908;51.688;7.130;2023-06-10T08:58:00;8.38;;;3.40;;
15616;SDS011;7908;51.688;7.130;2023-06-10T09:00:30;6.18;;;3.50;;
15616;SDS011;7908;51.688;7.130;2023-06-10T09:02:59;5.53;;;3.80;;
15616;SDS011;7908;51.688;7.130;2023-06-10T09:05:32;6.13;;;4.00;;
15616;SDS011;7908;51.688;7.130;2023-06-10T09:08:04;6.10;;;4.30;;
15616;SDS011;7908;51.688;7.130;2023-06-10T09:10:37;7.45;;;3.67;;
15616;SDS011;7908;51.688;7.130;2023-06-10T09:13:09;5.18;;;3.47;;
15616;SDS011;7908;51.688;7.130;2023-06-10T09:15:38;6.35;;;3.50;;
15616;SDS011;7908;51.688;7.130;2023-06-10T09:18:09;5.50;;;3.70;;
15616;SDS011;7908;51.688;7.130;2023-06-10T09:20:39;5.53;;;3.53;;
15616;SDS011;7908;51.688;7.130;2023-06-10T09:23:08;6.28;;;3.50;;
15616;SDS011;7908;51.688;7.130;2023-06-10T09:25:39;6.15;;;3.85;;
15616;SDS011;7908;51.688;7.130;2023-06-10T09:28:12;7.82;;;3.60;;
15616;SDS011;7908;51.688;7.130;2023-06-10T09:30:42;5.55;;;3.60;;
15616;SDS011;7908;51.688;7.130;2023-06-10T09:33:13;5.15;;;3.72;;
15616;SDS011;7908;51.688;7.130;2023-06-10T09:35:47;6.88;;;3.80;;
15616;SDS011;7908;51.688;7.130;2023-06-10T09:38:19;3.80;;;3.40;;
15616;SDS011;7908;51.688;7.130;2023-06-10T09:40:51;5.05;;;3.50;;
15616;SDS011;7908;51.688;7.130;2023-06-10T09:43:23;5.07;;;3.60;;
15616;SDS011;7908;51.688;7.130;2023-06-10T09:46:15;6.82;;;3.67;;
15616;SDS011;7908;51.688;7.130;2023-06-10T09:48:46;5.05;;;3.90;;
15616;SDS011;7908;51.688;7.130;2023-06-10T09:51:16;4.20;;;3.33;;
15616;SDS011;7908;51.688;7.130;2023-06-10T09:53:47;4.35;;;3.30;;
15616;SDS011;7908;51.688;7.130;2023-06-10T09:56:19;4.90;;;3.20;;
15616;SDS011;7908;51.688;7.130;2023-06-10T09:58:49;4.53;;;3.45;;
15616;SDS011;7908;51.688;7.130;2023-06-10T10:01:22;6.43;;;3.63;;
15616;SDS011;7908;51.688;7.130;2023-06-10T10:03:52;3.88;;;2.97;;
15616;SDS011;7908;51.688;7.130;2023-06-10T10:06:21;5.60;;;4.10;;
15616;SDS011;7908;51.688;7.130;2023-06-10T10:08:52;4.07;;;3.28;;
15616;SDS011;7908;51.688;7.130;2023-06-10T10:11:23;8.13;;;3.55;;
15616;SDS011;7908;51.688;7.130;2023-06-10T10:13:54;5.88;;;3.35;;
15616;SDS011;7908;51.688;7.130;2023-06-10T10:16:27;7.43;;;5.13;;
15616;SDS011;7908;51.688;7.130;2023-06-10T10:19:03;5.40;;;3.63;;
15616;SDS011;7908;51.688;7.130;2023-06-10T10:21:37;5.03;;;3.85;;
15616;SDS011;7908;51.688;7.130;2023-06-10T10:24:12;4.43;;;4.03;;
15616;SDS011;7908;51.688;7.130;2023-06-10T10:26:47;6.00;;;3.58;;
15616;SDS011;7908;51.688;7.130;2023-06-10T10:29:20;5.65;;;3.65;;
15616;SDS011;7908;51.688;7.130;2023-06-10T10:31:56;9.35;;;4.10;;
15616;SDS011;7908;51.688;7.130;2023-06-10T10:34:30;4.35;;;3.33;;
15616;SDS011;7908;51.688;7.130;2023-06-10T10:37:04;5.78;;;3.65;;
15616;SDS011;7908;51.688;7.130;2023-06-10T10:39:33;5.85;;;4.00;;
15616;SDS011;7908;51.688;7.130;2023-06-10T10:42:06;6.13;;;3.88;;
15616;SDS011;7908;51.688;7.130;2023-06-10T10:44:38;6.25;;;3.35;;
15616;SDS011;7908;51.688;7.130;2023-06-10T10:47:08;7.50;;;3.85;;
15616;SDS011;7908;51.688;7.130;2023-06-10T10:49:42;5.90;;;3.95;;
15616;SDS011;7908;51.688;7.130;2023-06-10T10:52:13;3.78;;;3.25;;
15616;SDS011;7908;51.688;7.130;2023-06-10T10:54:44;4.13;;;3.60;;
15616;SDS011;7908;51.688;7.130;2023-06-10T10:57:16;7.13;;;3.70;;
15616;SDS011;7908;51.688;7.130;2023-06-10T10:59:54;5.75;;;3.75;;
15616;SDS011;7908;51.688;7.130;2023-06-10T11:02:37;9.95;;;3.58;;
15616;SDS011;7908;51.688;7.130;2023-06-10T11:05:11;4.30;;;3.90;;
15616;SDS011;7908;51.688;7.130;2023-06-10T11:07:51;6.55;;;4.18;;
15616;SDS011;7908;51.688;7.130;2023-06-10T11:10:28;4.38;;;3.50;;
15616;SDS011;7908;51.688;7.130;2023-06-10T11:13:00;5.15;;;4.00;;
15616;SDS011;7908;51.688;7.130;2023-06-10T11:15:37;6.95;;;3.83;;
15616;SDS011;7908;51.688;7.130;2023-06-10T11:18:12;8.30;;;3.72;;
15616;SDS011;7908;51.688;7.130;2023-06-10T11:20:44;12.95;;;3.75;;
15616;SDS011;7908;51.688;7.130;2023-06-10T11:26:11;6.95;;;4.05;;
15616;SDS011;7908;51.688;7.130;2023-06-10T11:29:08;5.25;;;3.83;;
15616;SDS011;7908;51.688;7.130;2023-06-10T11:31:42;7.22;;;3.97;;
15616;SDS011;7908;51.688;7.130;2023-06-10T11:34:13;7.00;;;3.92;;
15616;SDS011;7908;51.688;7.130;2023-06-10T11:36:43;4.43;;;3.53;;
15616;SDS011;7908;51.688;7.130;2023-06-10T11:39:13;5.28;;;3.38;;
15616;SDS011;7908;51.688;7.130;2023-06-10T11:41:42;4.78;;;4.00;;
15616;SDS011;7908;51.688;7.130;2023-06-10T11:44:13;7.75;;;4.22;;
15616;SDS011;7908;51.688;7.130;2023-06-10T11:46:47;4.55;;;3.58;;
15616;SDS011;7908;51.688;7.130;2023-06-10T11:49:20;4.75;;;3.90;;
15616;SDS011;7908;51.688;7.130;2023-06-10T11:51:49;4.15;;;3.58;;
15616;SDS011;7908;51.688;7.130;2023-06-10T11:54:18;4.45;;;3.92;;
15616;SDS011;7908;51.688;7.130;2023-06-10T11:56:48;7.72;;;4.00;;
15616;SDS011;7908;51.688;7.130;2023-06-10T11:59:21;6.07;;;3.90;;
15616;SDS011;7908;51.688;7.130;2023-06-10T12:01:56;5.78;;;3.97;;
15616;SDS011;7908;51.688;7.130;2023-06-10T12:04:25;4.30;;;3.90;;
15616;SDS011;7908;51.688;7.130;2023-06-10T12:06:54;6.15;;;3.95;;
15616;SDS011;7908;51.688;7.130;2023-06-10T12:09:24;5.03;;;4.18;;
15616;SDS011;7908;51.688;7.130;2023-06-10T12:11:55;18.05;;;4.13;;
15616;SDS011;7908;51.688;7.130;2023-06-10T12:17:35;4.60;;;4.15;;
15616;SDS011;7908;51.688;7.130;2023-06-10T12:20:06;10.85;;;4.28;;
15616;SDS011;7908;51.688;7.130;2023-06-10T12:22:37;5.35;;;3.75;;
15616;SDS011;7908;51.688;7.130;2023-06-10T12:25:07;7.63;;;4.00;;
15616;SDS011;7908;51.688;7.130;2023-06-10T12:27:38;9.32;;;4.10;;
15616;SDS011;7908;51.688;7.130;2023-06-10T12:30:09;4.28;;;3.58;;
15616;SDS011;7908;51.688;7.130;2023-06-10T12:32:47;8.05;;;4.15;;
15616;SDS011;7908;51.688;7.130;2023-06-10T12:35:17;5.35;;;3.92;;
15616;SDS011;7908;51.688;7.130;2023-06-10T12:37:54;6.43;;;3.92;;
15616;SDS011;7908;51.688;7.130;2023-06-10T12:40:28;6.25;;;3.80;;
15616;SDS011;7908;51.688;7.130;2023-06-10T12:42:58;6.72;;;4.30;;
15616;SDS011;7908;51.688;7.130;2023-06-10T12:45:30;6.90;;;3.88;;
15616;SDS011;7908;51.688;7.130;2023-06-10T12:48:04;5.43;;;3.88;;
15616;SDS011;7908;51.688;7.130;2023-06-10T12:50:37;4.18;;;3.60;;
15616;SDS011;7908;51.688;7.130;2023-06-10T12:53:07;5.53;;;3.97;;
15616;SDS011;7908;51.688;7.130;2023-06-10T12:55:38;5.03;;;3.50;;
15616;SDS011;7908;51.688;7.130;2023-06-10T12:58:07;16.52;;;4.05;;
15616;SDS011;7908;51.688;7.130;2023-06-10T13:00:38;5.50;;;3.80;;
15616;SDS011;7908;51.688;7.130;2023-06-10T13:03:23;5.38;;;3.65;;
15616;SDS011;7908;51.688;7.130;2023-06-10T13:06:25;14.88;;;4.63;;
15616;SDS011;7908;51.688;7.130;2023-06-10T13:35:48;6.45;;;4.20;;
15616;SDS011;7908;51.688;7.130;2023-06-10T13:38:17;7.57;;;3.90;;
15616;SDS011;7908;51.688;7.130;2023-06-10T13:40:48;4.90;;;4.05;;
15616;SDS011;7908;51.688;7.130;2023-06-10T13:43:19;7.78;;;4.13;;
15616;SDS011;7908;51.688;7.130;2023-06-10T13:45:52;4.40;;;4.00;;
15616;SDS011;7908;51.688;7.130;2023-06-10T13:48:24;21.15;;;4.70;;
15616;SDS011;7908;51.688;7.130;2023-06-10T13:50:57;5.88;;;4.30;;
15616;SDS011;7908;51.688;7.130;2023-06-10T13:53:29;5.82;;;4.20;;
15616;SDS011;7908;51.688;7.130;2023-06-10T13:56:24;8.50;;;4.30;;
15616;SDS011;7908;51.688;7.130;2023-06-10T13:59:35;4.75;;;3.60;;
15616;SDS011;7908;51.688;7.130;2023-06-10T14:03:06;5.10;;;4.10;;
15616;SDS011;7908;51.688;7.130;2023-06-10T14:05:56;5.18;;;4.30;;
15616;SDS011;7908;51.688;7.130;2023-06-10T14:11:51;5.65;;;4.32;;
15616;SDS011;7908;51.688;7.130;2023-06-10T14:15:11;7.82;;;5.00;;
15616;SDS011;7908;51.688;7.130;2023-06-10T14:21:43;6.13;;;4.50;;
15616;SDS011;7908;51.688;7.130;2023-06-10T14:28:25;8.23;;;6.97;;
15616;SDS011;7908;51.688;7.130;2023-06-10T14:30:55;6.65;;;4.93;;
15616;SDS011;7908;51.688;7.130;2023-06-10T14:33:24;5.30;;;4.63;;
15616;SDS011;7908;51.688;7.130;2023-06-10T14:35:54;8.07;;;5.18;;
15616;SDS011;7908;51.688;7.130;2023-06-10T14:38:24;6.47;;;4.05;;
15616;SDS011;7908;51.688;7.130;2023-06-10T14:40:53;6.18;;;4.00;;
15616;SDS011;7908;51.688;7.130;2023-06-10T14:43:22;9.25;;;4.45;;
15616;SDS011;7908;51.688;7.130;2023-06-10T14:45:53;4.82;;;3.88;;
15616;SDS011;7908;51.688;7.130;2023-06-10T14:48:24;6.68;;;4.15;;
15616;SDS011;7908;51.688;7.130;2023-06-10T14:50:53;5.47;;;3.58;;
15616;SDS011;7908;51.688;7.130;2023-06-10T14:53:23;6.80;;;4.47;;
15616;SDS011;7908;51.688;7.130;2023-06-10T14:55:52;5.70;;;3.95;;
15616;SDS011;7908;51.688;7.130;2023-06-10T14:58:21;7.10;;;3.85;;
15616;SDS011;7908;51.688;7.130;2023-06-10T15:00:51;4.55;;;3.45;;
15616;SDS011;7908;51.688;7.130;2023-06-10T15:03:21;4.47;;;3.67;;
15616;SDS011;7908;51.688;7.130;2023-06-10T15:05:51;5.05;;;4.03;;
15616;SDS011;7908;51.688;7.130;2023-06-10T15:08:20;4.38;;;3.97;;
15616;SDS011;7908;51.688;7.130;2023-06-10T15:10:50;4.90;;;3.90;;
15616;SDS011;7908;51.688;7.130;2023-06-10T15:13:19;9.40;;;3.95;;
15616;SDS011;7908;51.688;7.130;2023-06-10T15:15:48;7.35;;;4.57;;
15616;SDS011;7908;51.688;7.130;2023-06-10T15:18:19;5.07;;;4.43;;
15616;SDS011;7908;51.688;7.130;2023-06-10T15:20:48;5.53;;;4.28;;
15616;SDS011;7908;51.688;7.130;2023-06-10T15:23:17;5.20;;;3.92;;
15616;SDS011;7908;51.688;7.130;2023-06-10T15:25:47;14.45;;;4.30;;
15616;SDS011;7908;51.688;7.130;2023-06-10T15:28:17;5.75;;;4.07;;
15616;SDS011;7908;51.688;7.130;2023-06-10T15:30:46;6.30;;;4.80;;
15616;SDS011;7908;51.688;7.130;2023-06-10T15:33:16;6.15;;;4.03;;
15616;SDS011;7908;51.688;7.130;2023-06-10T15:35:47;6.35;;;4.00;;
15616;SDS011;7908;51.688;7.130;2023-06-10T15:38:17;4.82;;;3.60;;
15616;SDS011;7908;51.688;7.130;2023-06-10T15:40:46;5.40;;;3.92;;
15616;SDS011;7908;51.688;7.130;2023-06-10T15:43:15;4.90;;;3.40;;
15616;SDS011;7908;51.688;7.130;2023-06-10T15:45:44;4.55;;;3.33;;
15616;SDS011;7908;51.688;7.130;2023-06-10T15:48:14;5.90;;;4.07;;
15616;SDS011;7908;51.688;7.130;2023-06-10T15:50:47;4.75;;;4.10;;
15616;SDS011;7908;51.688;7.130;2023-06-10T15:53:16;6.20;;;3.92;;
15616;SDS011;7908;51.688;7.130;2023-06-10T15:55:45;5.53;;;4.22;;
15616;SDS011;7908;51.688;7.130;2023-06-10T15:58:14;5.80;;;4.03;;
15616;SDS011;7908;51.688;7.130;2023-06-10T16:00:44;6.22;;;4.07;;
15616;SDS011;7908;51.688;7.130;2023-06-10T16:03:13;4.68;;;3.90;;
15616;SDS011;7908;51.688;7.130;2023-06-10T16:05:43;7.32;;;4.47;;
15616;SDS011;7908;51.688;7.130;2023-06-10T16:08:13;10.32;;;6.53;;